createdAt,value
2019-01-11T00:04:41.488Z,2.95
2019-01-11T00:09:44.971Z,4.17
2019-01-11T00:14:48.453Z,2.70
2019-01-11T00:19:51.936Z,2.67
2019-01-11T00:24:55.433Z,3.95
2019-01-11T00:29:58.933Z,2.53
2019-01-11T00:35:02.529Z,5.03
2019-01-11T00:40:07.343Z,3.00
2019-01-11T00:45:11.963Z,1.90
2019-01-11T00:50:15.452Z,2.80
2019-01-11T00:55:19.010Z,3.13
2019-01-11T01:00:24.137Z,2.20
2019-01-11T01:05:27.598Z,2.47
2019-01-11T01:10:31.079Z,2.50
2019-01-11T01:15:34.635Z,1.87
2019-01-11T01:20:38.640Z,2.27
2019-01-11T01:25:42.203Z,2.33
2019-01-11T01:30:45.689Z,2.23
2019-01-11T01:35:49.178Z,2.33
2019-01-11T01:40:52.677Z,2.75
2019-01-11T01:45:56.158Z,1.77
2019-01-11T01:50:59.653Z,3.00
2019-01-11T01:56:03.181Z,1.90
2019-01-11T02:01:06.737Z,2.53
2019-01-11T02:06:10.229Z,1.90
2019-01-11T02:11:13.721Z,2.37
2019-01-11T02:16:17.209Z,2.33
2019-01-11T02:21:20.694Z,1.57
2019-01-11T02:26:24.952Z,1.53
2019-01-11T02:31:28.439Z,2.10
2019-01-11T02:36:31.921Z,2.10
2019-01-11T02:41:35.399Z,2.33
2019-01-11T02:46:38.885Z,1.93
2019-01-11T02:51:42.363Z,2.37
2019-01-11T02:56:45.863Z,2.00
2019-01-11T03:01:49.356Z,2.03
2019-01-11T03:06:52.835Z,1.53
2019-01-11T03:11:56.327Z,1.33
2019-01-11T03:16:59.807Z,2.33
2019-01-11T03:22:03.361Z,2.63
2019-01-11T03:27:06.851Z,1.67
2019-01-11T03:32:10.505Z,1.87
2019-01-11T03:37:13.989Z,2.00
2019-01-11T03:42:17.485Z,1.40
2019-01-11T03:47:20.963Z,1.70
2019-01-11T03:52:24.448Z,2.23
2019-01-11T03:57:27.933Z,2.20
2019-01-11T04:02:31.418Z,1.60
2019-01-11T04:07:34.903Z,1.33
2019-01-11T04:12:38.382Z,1.17
2019-01-11T04:17:41.870Z,1.60
2019-01-11T04:22:49.748Z,2.07
2019-01-11T04:27:53.399Z,2.13
2019-01-11T04:32:56.884Z,1.27
2019-01-11T04:38:00.376Z,1.17
2019-01-11T04:43:03.873Z,2.40
2019-01-11T04:48:07.346Z,1.97
2019-01-11T04:53:10.834Z,3.47
2019-01-11T04:58:14.320Z,1.20
2019-01-11T05:03:17.799Z,1.97
2019-01-11T05:08:21.284Z,1.75
2019-01-11T05:13:29.050Z,2.33
2019-01-11T05:18:32.531Z,2.20
2019-01-11T05:23:36.018Z,1.23
2019-01-11T05:28:39.491Z,1.70
2019-01-11T05:33:42.962Z,1.43
2019-01-11T05:38:46.431Z,0.97
2019-01-11T05:43:49.904Z,1.90
2019-01-11T05:48:53.377Z,1.40
2019-01-11T05:53:56.844Z,1.90
2019-01-11T05:59:01.952Z,1.42
2019-01-11T06:04:07.338Z,1.13
2019-01-11T06:09:10.802Z,1.25
2019-01-11T06:14:14.266Z,1.95
2019-01-11T06:19:17.730Z,1.17
2019-01-11T06:24:21.195Z,1.50
2019-01-11T06:29:24.662Z,1.27
2019-01-11T06:34:28.306Z,1.50
2019-01-11T06:39:31.945Z,1.25
2019-01-11T06:44:38.960Z,2.33
2019-01-11T06:49:40.607Z,1.25
2019-01-11T06:54:44.070Z,0.80
2019-01-11T06:59:47.545Z,1.10
2019-01-11T07:04:51.010Z,1.42
2019-01-11T07:09:56.346Z,1.60
2019-01-11T07:14:59.811Z,1.50
2019-01-11T07:20:05.670Z,1.10
2019-01-11T07:25:11.109Z,1.27
2019-01-11T07:30:16.117Z,1.43
2019-01-11T07:35:19.584Z,1.12
2019-01-11T07:40:23.056Z,0.97
2019-01-11T07:45:26.522Z,1.35
2019-01-11T07:50:29.991Z,0.90
2019-01-11T07:55:33.529Z,1.40
2019-01-11T08:00:36.997Z,1.55
2019-01-11T08:05:40.467Z,1.00
2019-01-11T08:10:43.933Z,1.87
2019-01-11T08:15:47.399Z,1.47
2019-01-11T08:20:56.160Z,0.90
2019-01-11T08:25:56.060Z,2.50
2019-01-11T08:30:59.523Z,6.35
2019-01-11T08:36:03.529Z,5.73
2019-01-11T08:41:07.067Z,6.73
2019-01-11T08:46:10.537Z,3.97
2019-01-11T08:51:14.175Z,5.57
2019-01-11T08:56:17.645Z,6.40
2019-01-11T09:01:21.117Z,5.97
2019-01-11T09:06:24.585Z,6.80
2019-01-11T09:11:28.135Z,7.67
2019-01-11T09:16:31.597Z,6.67
2019-01-11T09:21:41.456Z,9.07
2019-01-11T09:26:40.264Z,11.03
2019-01-11T09:31:43.737Z,10.30
2019-01-11T09:36:47.204Z,8.73
2019-01-11T09:41:50.671Z,7.07
2019-01-11T09:46:54.140Z,11.13
2019-01-11T09:51:57.612Z,13.40
2019-01-11T09:57:01.076Z,7.93
2019-01-11T10:02:18.185Z,6.17
2019-01-11T10:07:25.729Z,9.57
2019-01-11T10:12:29.200Z,8.48
2019-01-11T10:17:32.736Z,9.27
2019-01-11T10:22:36.294Z,7.23
2019-01-11T10:27:39.840Z,7.60
2019-01-11T10:32:43.309Z,7.77
2019-01-11T10:37:46.775Z,5.90
2019-01-11T10:42:50.579Z,5.70
2019-01-11T10:47:54.216Z,8.60
2019-01-11T10:52:57.749Z,7.00
2019-01-11T10:58:01.212Z,8.27
2019-01-11T11:03:04.916Z,6.27
2019-01-11T11:08:08.378Z,5.90
2019-01-11T11:13:11.850Z,5.08
2019-01-11T11:18:15.486Z,9.80
2019-01-11T11:23:18.954Z,5.57
2019-01-11T11:28:22.419Z,5.50
2019-01-11T11:33:25.887Z,6.37
2019-01-11T11:38:29.351Z,9.77
2019-01-11T11:43:32.818Z,5.80
2019-01-11T11:48:36.289Z,7.40
2019-01-11T11:53:39.767Z,6.47
2019-01-11T11:58:43.220Z,5.30
2019-01-11T12:03:46.690Z,4.87
2019-01-11T12:08:50.164Z,8.37
2019-01-11T12:13:53.629Z,5.57
2019-01-11T12:18:57.096Z,7.77
2019-01-11T12:24:00.560Z,6.10
2019-01-11T12:29:04.033Z,8.23
2019-01-11T12:34:07.495Z,5.43
2019-01-11T12:39:10.965Z,5.50
2019-01-11T12:44:14.432Z,4.93
2019-01-11T12:49:17.899Z,5.77
2019-01-11T12:54:21.369Z,5.20
2019-01-11T12:59:24.838Z,6.73
2019-01-11T13:04:28.303Z,5.60
2019-01-11T13:09:31.771Z,4.90
2019-01-11T13:14:35.242Z,5.03
2019-01-11T13:19:38.713Z,4.20
2019-01-11T13:24:42.178Z,4.57
2019-01-11T13:29:45.711Z,4.83
2019-01-11T13:34:49.174Z,4.57
2019-01-11T13:39:52.646Z,4.37
2019-01-11T13:44:56.118Z,4.72
2019-01-11T13:49:59.951Z,4.53
2019-01-11T13:55:03.895Z,4.60
2019-01-11T14:00:14.723Z,5.00
2019-01-11T14:05:18.309Z,3.67
2019-01-11T14:10:21.777Z,5.10
2019-01-11T14:15:25.332Z,5.55
2019-01-11T14:20:28.798Z,4.05
2019-01-11T14:25:32.264Z,4.33
2019-01-11T14:30:35.810Z,4.00
2019-01-11T14:35:39.272Z,4.83
2019-01-11T14:40:42.740Z,4.57
2019-01-11T14:45:46.204Z,4.03
2019-01-11T14:50:49.678Z,3.97
2019-01-11T14:55:56.279Z,5.10
2019-01-11T15:00:58.344Z,8.27
2019-01-11T15:06:01.804Z,4.87
2019-01-11T15:11:05.277Z,2.53
2019-01-11T15:16:08.738Z,3.53
2019-01-11T15:21:12.210Z,3.00
2019-01-11T15:26:15.676Z,2.90
2019-01-11T15:31:19.141Z,3.50
2019-01-11T15:36:23.180Z,4.43
2019-01-11T15:41:26.661Z,4.17
2019-01-11T15:46:30.130Z,2.93
2019-01-11T15:51:33.874Z,3.15
2019-01-11T15:56:37.412Z,5.10
2019-01-11T16:01:40.876Z,2.97
2019-01-11T16:06:44.359Z,2.83
2019-01-11T16:11:59.086Z,2.60
2019-01-11T16:17:08.856Z,3.53
2019-01-11T16:22:12.346Z,4.30
2019-01-11T16:27:15.826Z,2.70
2019-01-11T16:32:19.315Z,3.27
2019-01-11T16:37:22.803Z,3.07
2019-01-11T16:42:26.276Z,2.77
2019-01-11T16:47:29.746Z,1.97
2019-01-11T16:52:33.222Z,3.07
2019-01-11T16:57:36.682Z,3.53
2019-01-11T17:02:40.160Z,2.30
2019-01-11T17:07:43.780Z,2.47
2019-01-11T17:12:47.242Z,3.13
2019-01-11T17:17:50.719Z,2.67
2019-01-11T17:22:54.188Z,3.25
2019-01-11T17:27:57.657Z,2.43
2019-01-11T17:33:01.124Z,2.55
2019-01-11T17:38:04.661Z,2.83
2019-01-11T17:43:08.623Z,3.53
2019-01-11T17:48:13.806Z,1.90
2019-01-11T17:53:17.278Z,2.37
2019-01-11T17:58:20.748Z,2.30
2019-01-11T18:03:25.360Z,3.67
2019-01-11T18:08:28.860Z,2.27
2019-01-11T18:13:32.383Z,1.90
2019-01-11T18:18:35.889Z,2.25
2019-01-11T18:23:39.359Z,3.30
2019-01-11T18:28:42.870Z,1.50
2019-01-11T18:33:46.350Z,1.80
2019-01-11T18:38:49.844Z,2.73
2019-01-11T18:43:53.335Z,2.07
2019-01-11T18:48:56.838Z,1.67
2019-01-11T18:54:00.323Z,2.37
2019-01-11T18:59:03.794Z,1.73
2019-01-11T19:04:07.260Z,3.23
2019-01-11T19:09:10.728Z,5.77
2019-01-11T19:14:14.196Z,1.72
2019-01-11T19:19:17.666Z,1.13
2019-01-11T19:24:21.139Z,1.73
2019-01-11T19:29:24.605Z,1.30
2019-01-11T19:34:28.066Z,2.27
2019-01-11T19:39:31.542Z,1.20
2019-01-11T19:44:35.020Z,1.32
2019-01-11T19:49:38.490Z,1.80
2019-01-11T19:54:41.992Z,2.20
2019-01-11T19:59:45.505Z,1.27
2019-01-11T20:04:48.985Z,1.57
2019-01-11T20:09:52.467Z,2.13
2019-01-11T20:14:55.947Z,1.52
2019-01-11T20:19:59.435Z,1.67
2019-01-11T20:25:04.996Z,1.37
2019-01-11T20:30:11.537Z,1.30
2019-01-11T20:35:15.260Z,1.53
2019-01-11T20:40:20.526Z,1.85
2019-01-11T20:45:24.179Z,0.83
2019-01-11T20:50:28.095Z,1.80
2019-01-11T20:55:32.144Z,2.20
2019-01-11T21:00:35.712Z,1.50
2019-01-11T21:05:40.766Z,0.70
2019-01-11T21:10:44.243Z,2.23
2019-01-11T21:15:47.727Z,1.30
2019-01-11T21:20:51.206Z,0.77
2019-01-11T21:25:54.694Z,1.90
2019-01-11T21:30:58.179Z,1.25
2019-01-11T21:36:01.689Z,0.57
2019-01-11T21:41:05.186Z,1.43
2019-01-11T21:46:09.529Z,1.87
2019-01-11T21:51:13.025Z,1.60
2019-01-11T21:56:16.662Z,1.17
2019-01-11T22:01:20.125Z,3.70
2019-01-11T22:06:23.607Z,0.60
2019-01-11T22:11:27.073Z,0.82
2019-01-11T22:16:30.536Z,1.20
2019-01-11T22:21:34.007Z,2.80
2019-01-11T22:26:37.543Z,1.57
2019-01-11T22:31:41.003Z,1.30
2019-01-11T22:36:44.487Z,0.90
2019-01-11T22:41:47.951Z,1.00
2019-01-11T22:46:51.418Z,0.50
2019-01-11T22:51:54.882Z,0.90
2019-01-11T22:56:58.353Z,1.07
2019-01-11T23:02:04.902Z,1.10
2019-01-11T23:07:10.307Z,0.77
2019-01-11T23:12:31.695Z,1.20
2019-01-11T23:17:43.560Z,1.10
2019-01-11T23:22:47.023Z,0.83
2019-01-11T23:27:50.499Z,1.10
2019-01-11T23:32:53.963Z,0.88
2019-01-11T23:37:57.431Z,0.80
2019-01-11T23:43:00.897Z,1.33
2019-01-11T23:48:04.653Z,0.67
2019-01-11T23:53:08.135Z,1.10
2019-01-11T23:58:11.621Z,0.97
